Time;durP1;ratioP1;P1;durP2;ratioP2;P2;SDS_P1;SDS_P2;PMS_P1;PMS_P2;Temp;Humidity;BMP_temperature;BMP_pressure;BME280_temperature;BME280_humidity;BME280_pressure;Samples;Min_cycle;Max_cycle;Signal;HPM_P1;HPM_P2
2023/03/03 00:00:11;;;;;;;3.63;1.83;;;;;;;;;;5054373;28;20055;-78
2023/03/03 00:02:37;;;;;;;2.67;1.60;;;;;;;;;;5054780;28;20045;-78
2023/03/03 00:05:03;;;;;;;2.63;1.50;;;;;;;;;;5054698;28;20119;-78
2023/03/03 00:07:29;;;;;;;2.92;1.55;;;;;;;;;;5054683;28;20468;-78
2023/03/03 00:09:55;;;;;;;4.38;2.22;;;;;;;;;;5054651;28;20567;-78
2023/03/03 00:12:29;;;;;;;4.45;1.73;;;;;;;;;;5054615;28;20102;-78
2023/03/03 00:14:55;;;;;;;3.05;1.70;;;;;;;;;;5054781;28;20049;-78
2023/03/03 00:17:23;;;;;;;2.72;1.58;;;;;;;;;;5054081;28;21248;-78
2023/03/03 00:19:49;;;;;;;4.68;1.70;;;;;;;;;;5054368;28;20045;-77
2023/03/03 00:22:35;;;;;;;3.53;1.77;;;;;;;;;;5055352;28;20053;-77
2023/03/03 00:25:21;;;;;;;1.85;1.40;;;;;;;;;;5054798;28;20049;-77
2023/03/03 00:27:47;;;;;;;3.30;1.77;;;;;;;;;;5054409;28;20090;-78
2023/03/03 00:30:26;;;;;;;3.80;1.60;;;;;;;;;;5054112;28;20124;-78
2023/03/03 00:32:54;;;;;;;5.85;2.10;;;;;;;;;;5053979;28;20080;-77
2023/03/03 00:35:26;;;;;;;4.20;1.92;;;;;;;;;;5054097;28;20084;-77
2023/03/03 00:37:54;;;;;;;3.25;1.63;;;;;;;;;;5054422;28;20045;-77
2023/03/03 00:40:22;;;;;;;1.95;1.65;;;;;;;;;;5052967;28;20052;-78
2023/03/03 00:42:59;;;;;;;5.70;1.88;;;;;;;;;;5083024;28;20049;-77
2023/03/03 00:45:25;;;;;;;;;;;;;;;;;;5054133;28;20121;-77
2023/03/03 00:47:51;;;;;;;;;;;;;;;;;;5053925;28;20287;-78
2023/03/03 00:50:17;;;;;;;2.80;1.70;;;;;;;;;;5054569;28;19928;-78
2023/03/03 00:52:55;;;;;;;2.75;1.50;;;;;;;;;;5053003;28;20044;-78
2023/03/03 00:55:21;;;;;;;6.43;1.80;;;;;;;;;;5054069;28;20404;-78
2023/03/03 00:57:47;;;;;;;3.70;1.98;;;;;;;;;;5053716;28;20041;-78
2023/03/03 01:00:13;;;;;;;2.92;1.77;;;;;;;;;;5053893;28;20562;-78
2023/03/03 01:02:39;;;;;;;4.82;1.80;;;;;;;;;;5053659;28;20040;-78
2023/03/03 01:05:05;;;;;;;4.30;1.60;;;;;;;;;;5053773;28;20083;-78
2023/03/03 01:07:32;;;;;;;4.20;1.65;;;;;;;;;;5053854;28;20060;-78
2023/03/03 01:09:58;;;;;;;3.60;1.80;;;;;;;;;;5053425;28;20045;-78
2023/03/03 01:12:24;;;;;;;2.78;1.90;;;;;;;;;;5054156;28;20080;-78
2023/03/03 01:14:51;;;;;;;6.03;2.10;;;;;;;;;;5053659;28;20084;-78
2023/03/03 01:17:18;;;;;;;4.03;1.83;;;;;;;;;;5053341;28;20140;-78
2023/03/03 01:19:44;;;;;;;4.63;1.88;;;;;;;;;;5053419;28;20041;-78
2023/03/03 01:22:10;;;;;;;7.22;2.17;;;;;;;;;;5053400;28;20045;-78
2023/03/03 01:24:36;;;;;;;6.40;1.95;;;;;;;;;;5053351;28;20068;-78
2023/03/03 01:27:02;;;;;;;5.43;2.00;;;;;;;;;;5052990;28;20400;-78
2023/03/03 01:29:28;;;;;;;4.70;2.20;;;;;;;;;;5053246;28;20049;-78
2023/03/03 01:31:54;;;;;;;6.50;2.20;;;;;;;;;;5053184;28;20052;-78
2023/03/03 01:34:20;;;;;;;6.70;2.30;;;;;;;;;;5053410;28;20040;-78
2023/03/03 01:36:46;;;;;;;3.90;1.92;;;;;;;;;;5053500;28;20174;-78
2023/03/03 01:39:12;;;;;;;4.55;2.00;;;;;;;;;;5051668;28;20049;-78
2023/03/03 01:41:38;;;;;;;4.32;2.10;;;;;;;;;;5053498;28;20178;-77
2023/03/03 01:44:05;;;;;;;3.13;2.08;;;;;;;;;;5051860;28;20518;-77
2023/03/03 01:46:31;;;;;;;4.13;2.17;;;;;;;;;;5053128;28;20051;-77
2023/03/03 01:49:02;;;;;;;7.72;2.65;;;;;;;;;;5053515;28;20084;-78
2023/03/03 01:51:30;;;;;;;6.47;2.30;;;;;;;;;;5053323;28;20045;-78
2023/03/03 01:54:01;;;;;;;7.68;2.42;;;;;;;;;;5052461;28;20483;-78
2023/03/03 01:56:27;;;;;;;6.03;2.30;;;;;;;;;;5056112;28;20044;-78
2023/03/03 01:58:59;;;;;;;7.03;2.45;;;;;;;;;;5058672;28;20053;-78
2023/03/03 02:01:26;;;;;;;6.70;2.40;;;;;;;;;;5060197;28;20094;-78
2023/03/03 02:03:53;;;;;;;4.50;2.53;;;;;;;;;;5059516;28;20041;-78
2023/03/03 02:06:21;;;;;;;5.88;2.88;;;;;;;;;;5057147;28;20136;-78
2023/03/03 02:09:03;;;;;;;3.75;2.38;;;;;;;;;;5057067;28;20045;-78
2023/03/03 02:11:29;;;;;;;9.00;2.72;;;;;;;;;;5037255;28;20132;-78
2023/03/03 02:13:55;;;;;;;7.07;2.30;;;;;;;;;;5036848;28;20488;-78
2023/03/03 02:16:21;;;;;;;3.65;2.38;;;;;;;;;;5036950;28;20128;-78
2023/03/03 02:18:47;;;;;;;3.55;2.30;;;;;;;;;;5036884;28;20058;-78
2023/03/03 02:21:15;;;;;;;7.25;2.42;;;;;;;;;;5036903;28;20049;-77
2023/03/03 02:23:44;;;;;;;5.55;2.30;;;;;;;;;;5039763;28;20061;-78
2023/03/03 02:26:12;;;;;;;4.45;2.42;;;;;;;;;;5056276;28;20400;-78
2023/03/03 02:28:39;;;;;;;6.43;2.13;;;;;;;;;;5056459;28;20048;-78
2023/03/03 02:31:09;;;;;;;2.75;2.10;;;;;;;;;;5056191;28;20056;-78
2023/03/03 02:33:35;;;;;;;4.55;2.50;;;;;;;;;;5057085;28;20106;-78
2023/03/03 02:36:01;;;;;;;5.45;2.50;;;;;;;;;;5056052;28;20553;-78
2023/03/03 02:38:34;;;;;;;3.58;2.60;;;;;;;;;;5053567;28;20041;-78
2023/03/03 02:41:08;;;;;;;5.28;2.50;;;;;;;;;;5036432;28;20045;-78
2023/03/03 02:43:39;;;;;;;5.47;2.30;;;;;;;;;;5036934;28;20250;-78
2023/03/03 02:46:07;;;;;;;5.10;2.15;;;;;;;;;;5053415;28;20076;-78
2023/03/03 02:48:33;;;;;;;6.28;2.28;;;;;;;;;;5056635;28;20045;-78
2023/03/03 02:50:59;;;;;;;8.55;2.30;;;;;;;;;;5056364;28;20041;-77
2023/03/03 02:53:25;;;;;;;3.50;2.00;;;;;;;;;;5056773;28;20095;-78
2023/03/03 02:55:51;;;;;;;5.07;2.10;;;;;;;;;;5056499;28;20051;-78
2023/03/03 02:58:17;;;;;;;4.15;2.10;;;;;;;;;;5055591;28;20045;-77
2023/03/03 03:00:46;;;;;;;6.05;1.95;;;;;;;;;;5055824;28;20045;-77
2023/03/03 03:03:12;;;;;;;4.75;2.30;;;;;;;;;;5055721;28;20495;-78
2023/03/03 03:05:38;;;;;;;4.60;2.10;;;;;;;;;;5038005;28;20048;-77
2023/03/03 03:08:04;;;;;;;4.15;2.03;;;;;;;;;;5055516;28;20041;-77
2023/03/03 03:10:30;;;;;;;3.95;2.20;;;;;;;;;;5055370;28;20120;-77
2023/03/03 03:12:56;;;;;;;3.08;2.20;;;;;;;;;;5055700;28;20103;-77
2023/03/03 03:15:22;;;;;;;6.00;2.78;;;;;;;;;;5055850;28;20048;-77
2023/03/03 03:17:48;;;;;;;3.25;2.05;;;;;;;;;;5056250;28;20045;-77
2023/03/03 03:20:15;;;;;;;3.58;2.22;;;;;;;;;;5050446;28;20053;-78
2023/03/03 03:22:41;;;;;;;4.57;2.20;;;;;;;;;;5035598;28;20172;-78
2023/03/03 03:25:07;;;;;;;6.47;2.38;;;;;;;;;;5035730;28;20072;-78
2023/03/03 03:27:33;;;;;;;7.80;2.33;;;;;;;;;;5038895;28;20064;-78
2023/03/03 03:29:59;;;;;;;3.97;1.90;;;;;;;;;;5055408;28;20407;-78
2023/03/03 03:32:25;;;;;;;2.90;1.92;;;;;;;;;;5054854;28;20045;-77
2023/03/03 03:34:51;;;;;;;5.97;2.08;;;;;;;;;;5055132;28;20431;-77
2023/03/03 03:37:17;;;;;;;4.65;1.90;;;;;;;;;;5055422;28;20052;-78
2023/03/03 03:39:43;;;;;;;4.10;2.50;;;;;;;;;;5053017;28;20470;-77
2023/03/03 03:42:10;;;;;;;6.97;1.98;;;;;;;;;;5037378;28;20050;-77
2023/03/03 03:44:36;;;;;;;6.50;1.73;;;;;;;;;;5055059;28;20063;-77
2023/03/03 03:47:02;;;;;;;5.15;1.73;;;;;;;;;;5055179;28;20048;-78
2023/03/03 03:49:28;;;;;;;3.22;1.63;;;;;;;;;;5054863;28;20036;-78
2023/03/03 03:51:54;;;;;;;4.15;1.98;;;;;;;;;;5054032;28;20041;-77
2023/03/03 03:54:20;;;;;;;3.03;1.70;;;;;;;;;;5055260;28;20098;-78
2023/03/03 03:56:46;;;;;;;4.10;1.90;;;;;;;;;;5055139;28;20045;-78
2023/03/03 03:59:12;;;;;;;5.28;1.90;;;;;;;;;;5055137;28;20048;-78
2023/03/03 04:01:38;;;;;;;4.10;1.77;;;;;;;;;;5053881;28;20044;-77
2023/03/03 04:04:04;;;;;;;3.80;1.90;;;;;;;;;;5055131;28;20120;-77
2023/03/03 04:06:31;;;;;;;2.42;1.67;;;;;;;;;;5054467;28;20041;-77
2023/03/03 04:08:57;;;;;;;3.85;1.80;;;;;;;;;;5054839;28;20048;-77
2023/03/03 04:11:23;;;;;;;4.40;1.80;;;;;;;;;;5055039;28;20041;-77
2023/03/03 04:13:49;;;;;;;5.30;2.05;;;;;;;;;;5035006;28;20443;-77
2023/03/03 04:16:15;;;;;;;6.15;1.80;;;;;;;;;;5034816;28;20460;-77
2023/03/03 04:18:42;;;;;;;7.35;1.90;;;;;;;;;;5033637;28;20506;-78
2023/03/03 04:21:11;;;;;;;6.00;1.92;;;;;;;;;;5034386;28;20064;-78
2023/03/03 04:23:37;;;;;;;7.18;2.00;;;;;;;;;;5035800;28;20053;-78
2023/03/03 04:26:03;;;;;;;6.22;1.98;;;;;;;;;;5054520;28;20076;-77
2023/03/03 04:28:29;;;;;;;5.43;2.22;;;;;;;;;;5054438;28;20120;-77
2023/03/03 04:30:55;;;;;;;9.10;2.10;;;;;;;;;;5053623;28;20075;-77
2023/03/03 04:33:21;;;;;;;5.05;2.10;;;;;;;;;;5054430;28;20448;-78
2023/03/03 04:35:50;;;;;;;4.70;1.95;;;;;;;;;;5054117;28;20045;-78
2023/03/03 04:38:16;;;;;;;5.03;1.92;;;;;;;;;;5053914;28;20149;-78
2023/03/03 04:40:43;;;;;;;6.72;2.10;;;;;;;;;;5053660;28;20408;-77
2023/03/03 04:43:10;;;;;;;3.08;1.80;;;;;;;;;;5054045;28;20052;-77
2023/03/03 04:45:36;;;;;;;5.15;1.90;;;;;;;;;;5043161;28;20507;-77
2023/03/03 04:48:02;;;;;;;3.35;1.50;;;;;;;;;;5053936;28;20076;-77
2023/03/03 04:50:28;;;;;;;5.93;1.95;;;;;;;;;;5053725;28;20041;-77
2023/03/03 04:52:54;;;;;;;3.67;1.85;;;;;;;;;;5053201;28;20044;-77
2023/03/03 04:55:20;;;;;;;3.92;1.67;;;;;;;;;;5054320;28;20529;-77
2023/03/03 04:57:46;;;;;;;4.07;1.90;;;;;;;;;;5054790;28;20048;-77
2023/03/03 05:00:13;;;;;;;3.38;1.77;;;;;;;;;;5055510;28;20052;-77
2023/03/03 05:02:39;;;;;;;4.22;2.38;;;;;;;;;;5059222;28;20040;-77
2023/03/03 05:05:06;;;;;;;3.55;1.80;;;;;;;;;;5053151;28;20125;-77
2023/03/03 05:07:32;;;;;;;4.40;1.90;;;;;;;;;;5053959;28;20069;-78
2023/03/03 05:09:58;;;;;;;2.95;1.90;;;;;;;;;;5052556;28;20050;-78
2023/03/03 05:12:24;;;;;;;5.07;2.15;;;;;;;;;;5053522;28;20037;-77
2023/03/03 05:14:50;;;;;;;5.28;1.95;;;;;;;;;;5053286;28;20047;-77
2023/03/03 05:17:17;;;;;;;5.10;2.05;;;;;;;;;;5053978;28;20121;-77
2023/03/03 05:19:43;;;;;;;12.40;3.65;;;;;;;;;;5052090;28;20053;-78
2023/03/03 05:22:09;;;;;;;4.90;2.05;;;;;;;;;;5053950;28;20380;-77
2023/03/03 05:24:35;;;;;;;5.68;2.33;;;;;;;;;;5053419;28;20045;-78
2023/03/03 05:27:02;;;;;;;3.80;1.90;;;;;;;;;;5053844;28;20037;-78
2023/03/03 05:29:30;;;;;;;8.13;2.50;;;;;;;;;;5053290;28;20049;-78
2023/03/03 05:31:56;;;;;;;4.63;1.98;;;;;;;;;;5033256;28;20085;-78
2023/03/03 05:34:23;;;;;;;6.20;2.20;;;;;;;;;;5033698;28;20125;-78
2023/03/03 05:36:49;;;;;;;3.08;1.85;;;;;;;;;;5033284;28;20091;-78
2023/03/03 05:39:15;;;;;;;3.55;1.80;;;;;;;;;;5033697;28;20033;-78
2023/03/03 05:41:41;;;;;;;4.03;2.17;;;;;;;;;;5034549;28;20045;-78
2023/03/03 05:44:07;;;;;;;4.30;2.10;;;;;;;;;;5041846;28;20045;-78
2023/03/03 05:46:33;;;;;;;3.75;1.73;;;;;;;;;;5054123;28;20557;-78
2023/03/03 05:48:59;;;;;;;4.90;1.90;;;;;;;;;;5054347;28;20071;-78
2023/03/03 05:51:25;;;;;;;3.45;1.67;;;;;;;;;;5054048;28;20454;-78
2023/03/03 05:53:51;;;;;;;2.97;1.80;;;;;;;;;;5054475;28;20444;-78
2023/03/03 05:56:18;;;;;;;5.50;2.00;;;;;;;;;;5053053;28;20056;-77
2023/03/03 05:58:44;;;;;;;3.95;2.10;;;;;;;;;;5052924;28;20084;-78
2023/03/03 06:01:10;;;;;;;4.40;1.92;;;;;;;;;;5035235;28;20044;-77
2023/03/03 06:03:36;;;;;;;3.60;1.92;;;;;;;;;;5031569;28;20056;-77
2023/03/03 06:06:02;;;;;;;2.55;2.35;;;;;;;;;;5035365;28;20090;-77
2023/03/03 06:08:28;;;;;;;5.78;2.28;;;;;;;;;;5052987;28;20041;-78
2023/03/03 06:10:54;;;;;;;4.55;2.42;;;;;;;;;;5052843;28;20059;-78
2023/03/03 06:13:20;;;;;;;6.30;2.30;;;;;;;;;;5052538;28;20641;-78
2023/03/03 06:15:46;;;;;;;4.30;2.45;;;;;;;;;;5052988;28;20088;-78
2023/03/03 06:18:12;;;;;;;3.97;2.05;;;;;;;;;;5052413;28;20081;-78
2023/03/03 06:20:38;;;;;;;5.55;2.50;;;;;;;;;;5052518;28;20071;-78
2023/03/03 06:23:05;;;;;;;6.25;3.53;;;;;;;;;;5053342;28;20049;-78
2023/03/03 06:25:34;;;;;;;5.53;2.88;;;;;;;;;;5053039;28;20041;-77
2023/03/03 06:28:01;;;;;;;6.20;3.00;;;;;;;;;;5052770;28;20056;-77
2023/03/03 06:30:27;;;;;;;5.00;3.00;;;;;;;;;;5052777;28;20128;-77
2023/03/03 06:32:53;;;;;;;8.95;3.33;;;;;;;;;;5052790;28;20041;-78
2023/03/03 06:35:19;;;;;;;7.53;3.33;;;;;;;;;;5053531;28;20041;-77
2023/03/03 06:37:45;;;;;;;5.05;3.40;;;;;;;;;;5052323;28;20074;-77
2023/03/03 06:40:12;;;;;;;5.03;3.20;;;;;;;;;;5053253;28;20045;-77
2023/03/03 06:42:38;;;;;;;7.70;4.10;;;;;;;;;;5053845;28;20072;-77
2023/03/03 06:45:04;;;;;;;6.03;3.20;;;;;;;;;;5056445;28;20049;-77
2023/03/03 06:47:31;;;;;;;4.93;3.00;;;;;;;;;;5056341;28;20045;-77
2023/03/03 06:49:57;;;;;;;5.30;3.63;;;;;;;;;;5056456;28;20040;-77
2023/03/03 06:52:24;;;;;;;4.20;3.38;;;;;;;;;;5050954;28;20049;-77
2023/03/03 06:54:53;;;;;;;4.65;3.13;;;;;;;;;;5046106;28;20037;-78
2023/03/03 06:57:25;;;;;;;7.10;3.30;;;;;;;;;;5055983;28;20045;-78
2023/03/03 06:59:52;;;;;;;7.47;3.47;;;;;;;;;;5056114;28;20047;-78
2023/03/03 07:02:19;;;;;;;6.00;3.30;;;;;;;;;;5055475;28;20500;-78
2023/03/03 07:04:46;;;;;;;6.85;3.03;;;;;;;;;;5056318;28;20048;-78
2023/03/03 07:07:18;;;;;;;6.35;3.00;;;;;;;;;;5055265;28;20053;-78
2023/03/03 07:09:48;;;;;;;6.25;3.45;;;;;;;;;;5056286;28;20463;-78
2023/03/03 07:12:34;;;;;;;7.28;3.22;;;;;;;;;;5056781;28;20047;-80
2023/03/03 07:15:10;;;;;;;5.80;3.33;;;;;;;;;;5056539;28;20044;-78
2023/03/03 07:17:44;;;;;;;5.05;3.80;;;;;;;;;;5055889;28;20053;-78
2023/03/03 07:20:21;;;;;;;6.20;3.72;;;;;;;;;;5056132;28;20464;-78
2023/03/03 07:22:47;;;;;;;8.57;3.30;;;;;;;;;;5055751;28;20471;-78
2023/03/03 07:25:19;;;;;;;7.90;4.10;;;;;;;;;;5055012;28;20434;-78
2023/03/03 07:27:45;;;;;;;10.98;4.07;;;;;;;;;;5055423;28;20074;-78
2023/03/03 07:30:11;;;;;;;6.72;3.88;;;;;;;;;;5056076;28;20124;-78
2023/03/03 07:32:45;;;;;;;6.32;3.40;;;;;;;;;;5055587;28;20116;-78
2023/03/03 07:35:36;;;;;;;7.32;3.55;;;;;;;;;;5054993;28;20442;-78
2023/03/03 07:38:03;;;;;;;5.93;3.60;;;;;;;;;;5055755;28;20076;-78
2023/03/03 07:40:35;;;;;;;6.13;3.25;;;;;;;;;;5054901;28;20510;-79
2023/03/03 07:43:12;;;;;;;6.03;3.00;;;;;;;;;;5055465;28;20052;-78
2023/03/03 07:45:38;;;;;;;6.72;2.97;;;;;;;;;;5055486;28;20132;-77
2023/03/03 07:48:14;;;;;;;3.65;2.95;;;;;;;;;;5055030;28;20124;-77
2023/03/03 07:50:40;;;;;;;5.72;3.60;;;;;;;;;;5055507;28;20051;-77
2023/03/03 07:53:14;;;;;;;6.78;2.60;;;;;;;;;;5054796;28;20045;-78
2023/03/03 07:55:40;;;;;;;3.15;2.17;;;;;;;;;;5055135;28;20128;-77
2023/03/03 07:58:06;;;;;;;4.00;2.80;;;;;;;;;;5054869;28;20041;-77
2023/03/03 08:00:55;;;;;;;3.28;2.42;;;;;;;;;;5057307;28;20066;-77
2023/03/03 08:03:21;;;;;;;15.93;2.65;;;;;;;;;;5056133;28;20168;-77
2023/03/03 08:05:48;;;;;;;3.58;2.65;;;;;;;;;;5060466;28;20094;-77
2023/03/03 08:08:31;;;;;;;3.55;2.15;;;;;;;;;;5054801;28;20512;-77
2023/03/03 08:11:00;;;;;;;3.60;2.30;;;;;;;;;;5049490;28;20049;-77
2023/03/03 08:13:36;;;;;;;3.15;2.17;;;;;;;;;;5054722;28;20056;-78
2023/03/03 08:16:08;;;;;;;5.07;2.25;;;;;;;;;;5035132;28;20441;-78
2023/03/03 08:18:37;;;;;;;4.18;1.90;;;;;;;;;;5034522;28;20046;-78
2023/03/03 08:21:09;;;;;;;3.80;1.95;;;;;;;;;;5034676;28;20056;-78
2023/03/03 08:23:36;;;;;;;3.28;1.90;;;;;;;;;;5053462;28;20045;-79
2023/03/03 08:26:02;;;;;;;4.05;1.65;;;;;;;;;;5057534;28;20077;-79
2023/03/03 08:28:28;;;;;;;4.50;1.60;;;;;;;;;;5058363;28;20048;-79
2023/03/03 08:30:54;;;;;;;2.92;1.90;;;;;;;;;;5059199;28;20041;-79
2023/03/03 08:33:20;;;;;;;2.63;1.65;;;;;;;;;;5056190;28;20044;-79
2023/03/03 08:35:46;;;;;;;3.40;1.90;;;;;;;;;;5059367;28;20048;-82
2023/03/03 08:38:13;;;;;;;5.22;2.10;;;;;;;;;;5059254;28;20403;-79
2023/03/03 08:40:39;;;;;;;3.25;2.03;;;;;;;;;;5060440;28;20044;-81
2023/03/03 08:43:05;;;;;;;8.82;2.17;;;;;;;;;;5056910;28;20045;-78
2023/03/03 08:45:31;;;;;;;4.72;2.00;;;;;;;;;;5056807;28;20045;-81
2023/03/03 08:47:58;;;;;;;4.75;2.03;;;;;;;;;;5057234;28;20094;-79
2023/03/03 08:50:25;;;;;;;2.75;1.58;;;;;;;;;;5050077;28;20051;-79
2023/03/03 08:52:51;;;;;;;4.80;2.13;;;;;;;;;;5034083;28;20037;-79
2023/03/03 08:55:17;;;;;;;4.80;1.80;;;;;;;;;;5039206;28;20053;-78
2023/03/03 08:57:43;;;;;;;3.55;1.73;;;;;;;;;;5021096;28;20075;-79
2023/03/03 09:00:11;;;;;;;5.65;2.10;;;;;;;;;;5039651;28;20095;-84
2023/03/03 09:02:38;;;;;;;2.83;1.85;;;;;;;;;;5053447;28;20041;-79
2023/03/03 09:05:04;;;;;;;2.72;1.80;;;;;;;;;;5054524;28;20068;-80
2023/03/03 09:07:30;;;;;;;3.67;2.00;;;;;;;;;;5044944;28;20385;-79
2023/03/03 09:09:56;;;;;;;2.90;1.80;;;;;;;;;;5046915;28;20072;-79
2023/03/03 09:12:27;;;;;;;3.63;1.58;;;;;;;;;;5052328;28;20049;-79
2023/03/03 09:14:53;;;;;;;3.95;2.00;;;;;;;;;;5052283;28;20036;-79
2023/03/03 09:17:24;;;;;;;2.95;1.67;;;;;;;;;;5053471;28;20091;-79
2023/03/03 09:19:51;;;;;;;2.75;1.52;;;;;;;;;;5047059;28;20506;-79
2023/03/03 09:22:24;;;;;;;3.65;1.98;;;;;;;;;;5057010;28;20067;-79
2023/03/03 09:24:52;;;;;;;4.07;1.52;;;;;;;;;;5057370;28;20098;-79
2023/03/03 09:27:25;;;;;;;4.40;1.80;;;;;;;;;;5056560;28;20468;-79
2023/03/03 09:29:51;;;;;;;3.00;1.80;;;;;;;;;;5057451;28;20041;-79
2023/03/03 09:32:21;;;;;;;2.88;1.20;;;;;;;;;;5055899;28;20566;-79
2023/03/03 09:34:48;;;;;;;2.53;1.50;;;;;;;;;;5055509;28;20048;-79
2023/03/03 09:37:25;;;;;;;2.25;1.60;;;;;;;;;;5055518;28;20040;-79
2023/03/03 09:39:53;;;;;;;2.88;1.58;;;;;;;;;;5056241;28;20041;-79
2023/03/03 09:42:19;;;;;;;2.17;1.40;;;;;;;;;;5057529;28;20128;-79
2023/03/03 09:44:57;;;;;;;5.82;1.48;;;;;;;;;;5058123;28;20115;-79
2023/03/03 09:47:46;;;;;;;6.25;2.03;;;;;;;;;;5052316;28;20073;-79
2023/03/03 09:50:12;;;;;;;4.57;1.15;;;;;;;;;;5055837;28;20053;-79
2023/03/03 09:52:45;;;;;;;3.92;1.40;;;;;;;;;;5057072;28;20040;-79
2023/03/03 09:55:35;;;;;;;3.78;1.90;;;;;;;;;;5057925;28;20059;-80
2023/03/03 09:58:08;;;;;;;5.68;1.27;;;;;;;;;;5055828;28;20045;-78
2023/03/03 10:00:40;;;;;;;4.80;1.60;;;;;;;;;;5057254;28;20044;-78
2023/03/03 10:03:21;;;;;;;6.78;1.80;;;;;;;;;;5055647;28;20484;-80
2023/03/03 10:06:06;;;;;;;2.60;1.58;;;;;;;;;;5056419;28;20563;-80
2023/03/03 10:08:41;;;;;;;2.47;1.52;;;;;;;;;;5061362;28;20033;-80
2023/03/03 10:11:10;;;;;;;2.47;1.30;;;;;;;;;;5061297;28;20049;-80
2023/03/03 10:13:55;;;;;;;4.13;1.80;;;;;;;;;;5059911;28;20049;-80
2023/03/03 10:16:27;;;;;;;3.25;1.60;;;;;;;;;;5061702;28;20515;-80
2023/03/03 10:19:08;;;;;;;5.38;1.77;;;;;;;;;;5064157;28;20056;-80
2023/03/03 10:21:46;;;;;;;4.55;1.58;;;;;;;;;;5065088;28;20084;-80
2023/03/03 10:24:25;;;;;;;4.18;1.50;;;;;;;;;;5063473;28;20056;-80
2023/03/03 10:27:05;;;;;;;4.13;1.67;;;;;;;;;;5060176;28;20385;-80
2023/03/03 10:29:37;;;;;;;3.88;1.77;;;;;;;;;;5059654;28;20079;-80
2023/03/03 10:32:30;;;;;;;6.60;1.83;;;;;;;;;;5060372;28;20037;-79
2023/03/03 10:35:15;;;;;;;4.32;1.33;;;;;;;;;;5058938;28;20183;-79
2023/03/03 10:38:05;;;;;;;1.83;1.33;;;;;;;;;;5039043;28;20109;-80
2023/03/03 10:40:38;;;;;;;5.70;1.90;;;;;;;;;;5039943;28;20042;-79
2023/03/03 10:43:22;;;;;;;5.15;1.60;;;;;;;;;;5051672;28;20049;-79
2023/03/03 10:45:57;;;;;;;3.72;1.33;;;;;;;;;;5037391;28;20045;-79
2023/03/03 10:48:23;;;;;;;7.63;1.70;;;;;;;;;;5037933;28;20503;-79
2023/03/03 10:50:49;;;;;;;6.80;1.77;;;;;;;;;;5052716;28;20049;-80
2023/03/03 10:53:21;;;;;;;4.15;1.63;;;;;;;;;;5057996;28;20044;-84
2023/03/03 10:56:08;;;;;;;3.03;1.50;;;;;;;;;;5057485;28;20048;-80
2023/03/03 10:58:37;;;;;;;6.40;1.92;;;;;;;;;;5056263;28;20423;-80
2023/03/03 11:01:22;;;;;;;4.28;1.80;;;;;;;;;;5057069;28;20057;-85
2023/03/03 11:03:54;;;;;;;3.53;1.73;;;;;;;;;;5063638;28;20045;-81
2023/03/03 11:06:39;;;;;;;4.38;1.65;;;;;;;;;;5067265;28;20105;-81
2023/03/03 11:09:17;;;;;;;6.90;1.85;;;;;;;;;;5062063;28;20053;-81
2023/03/03 11:11:49;;;;;;;5.53;1.67;;;;;;;;;;5058437;28;20055;-81
2023/03/03 11:14:21;;;;;;;5.80;2.17;;;;;;;;;;5058910;28;20088;-80
2023/03/03 11:16:47;;;;;;;4.45;1.70;;;;;;;;;;5054075;28;20049;-80
2023/03/03 11:19:29;;;;;;;8.40;2.22;;;;;;;;;;5049843;28;20414;-80
2023/03/03 11:21:58;;;;;;;8.93;2.22;;;;;;;;;;5059013;28;20072;-80
2023/03/03 11:24:50;;;;;;;3.10;1.70;;;;;;;;;;5057176;28;20514;-80
2023/03/03 11:27:26;;;;;;;6.43;1.83;;;;;;;;;;5038513;28;20114;-81
2023/03/03 11:29:57;;;;;;;5.97;2.67;;;;;;;;;;5052226;28;20103;-80
2023/03/03 11:32:37;;;;;;;6.13;1.85;;;;;;;;;;5038726;28;20499;-80
2023/03/03 11:35:19;;;;;;;6.72;1.90;;;;;;;;;;5054474;28;20049;-80
2023/03/03 11:37:57;;;;;;;7.60;2.10;;;;;;;;;;5037865;28;20083;-79
2023/03/03 11:40:25;;;;;;;6.07;2.13;;;;;;;;;;5053651;28;20448;-80
2023/03/03 11:43:13;;;;;;;6.30;1.73;;;;;;;;;;5058667;28;20132;-80
2023/03/03 11:45:43;;;;;;;7.10;2.45;;;;;;;;;;5059402;28;20044;-81
2023/03/03 11:48:17;;;;;;;6.40;1.70;;;;;;;;;;5057984;28;20518;-80
2023/03/03 11:50:58;;;;;;;10.98;2.65;;;;;;;;;;5056147;28;20049;-81
2023/03/03 11:53:36;;;;;;;6.28;2.33;;;;;;;;;;5037286;28;20045;-81
2023/03/03 11:56:18;;;;;;;5.80;2.30;;;;;;;;;;5035762;28;20438;-81
2023/03/03 11:58:53;;;;;;;5.40;2.10;;;;;;;;;;5072532;28;20080;-80
2023/03/03 12:01:37;;;;;;;5.53;1.90;;;;;;;;;;5055621;28;20048;-81
2023/03/03 12:04:14;;;;;;;8.25;2.38;;;;;;;;;;5056673;28;20385;-79
2023/03/03 12:06:51;;;;;;;7.57;2.25;;;;;;;;;;5054293;28;20049;-80
2023/03/03 12:09:35;;;;;;;6.60;2.35;;;;;;;;;;5046994;28;20041;-81
2023/03/03 12:12:14;;;;;;;9.77;2.80;;;;;;;;;;5053673;28;20040;-80
2023/03/03 12:14:43;;;;;;;9.18;3.20;;;;;;;;;;5037678;28;20041;-80
2023/03/03 12:17:27;;;;;;;10.77;2.75;;;;;;;;;;5054434;28;20045;-81
2023/03/03 12:20:11;;;;;;;10.57;2.85;;;;;;;;;;5055151;28;20053;-80
2023/03/03 12:22:52;;;;;;;14.38;3.33;;;;;;;;;;5054979;28;20095;-80
2023/03/03 12:25:23;;;;;;;15.40;3.60;;;;;;;;;;5054968;28;20446;-80
2023/03/03 12:28:07;;;;;;;14.93;3.17;;;;;;;;;;5054495;28;20051;-80
2023/03/03 12:30:33;;;;;;;11.43;3.30;;;;;;;;;;5055043;28;20044;-80
2023/03/03 12:33:03;;;;;;;12.88;2.80;;;;;;;;;;5053229;28;20470;-80
2023/03/03 12:35:35;;;;;;;6.80;3.05;;;;;;;;;;5052993;28;20037;-80
2023/03/03 12:38:10;;;;;;;12.38;3.45;;;;;;;;;;5054286;28;20052;-80
2023/03/03 12:40:42;;;;;;;11.88;3.85;;;;;;;;;;5052132;28;20365;-80
2023/03/03 12:43:15;;;;;;;12.07;2.80;;;;;;;;;;5052756;28;20045;-80
2023/03/03 12:45:41;;;;;;;11.98;3.38;;;;;;;;;;5054668;28;20048;-80
2023/03/03 12:48:09;;;;;;;9.63;2.63;;;;;;;;;;5054113;28;20053;-80
2023/03/03 12:50:41;;;;;;;11.27;3.45;;;;;;;;;;5054453;28;20052;-80
2023/03/03 12:53:16;;;;;;;8.65;3.03;;;;;;;;;;5046963;28;20052;-79
2023/03/03 12:55:46;;;;;;;11.20;3.20;;;;;;;;;;5067889;28;20053;-80
2023/03/03 12:58:22;;;;;;;13.55;3.28;;;;;;;;;;5060284;28;20059;-80
2023/03/03 13:00:53;;;;;;;12.57;3.33;;;;;;;;;;5045134;28;20124;-80
2023/03/03 13:03:28;;;;;;;12.27;3.38;;;;;;;;;;5045119;28;20037;-80
2023/03/03 13:06:06;;;;;;;12.68;3.08;;;;;;;;;;5057061;28;20047;-79
2023/03/03 13:08:48;;;;;;;10.02;3.08;;;;;;;;;;5064187;28;20049;-80
2023/03/03 13:11:40;;;;;;;11.88;3.10;;;;;;;;;;5094948;28;20474;-80
2023/03/03 13:14:12;;;;;;;12.25;3.13;;;;;;;;;;5079346;28;20056;-80
2023/03/03 13:16:43;;;;;;;17.88;2.78;;;;;;;;;;5060261;28;20063;-80
2023/03/03 13:19:14;;;;;;;12.63;2.72;;;;;;;;;;5065775;28;20475;-80
2023/03/03 13:21:49;;;;;;;14.15;3.80;;;;;;;;;;5066094;28;20053;-80
2023/03/03 13:24:22;;;;;;;13.23;3.15;;;;;;;;;;5066025;28;20051;-80
2023/03/03 13:27:00;;;;;;;16.98;3.75;;;;;;;;;;5065203;28;20084;-80
2023/03/03 13:29:35;;;;;;;11.68;3.00;;;;;;;;;;5064829;28;20438;-80
2023/03/03 13:32:04;;;;;;;12.73;2.92;;;;;;;;;;5067000;28;20071;-83
2023/03/03 13:34:42;;;;;;;13.57;3.30;;;;;;;;;;5064386;28;20048;-79
2023/03/03 13:37:11;;;;;;;16.35;3.35;;;;;;;;;;5063095;28;20056;-79
2023/03/03 13:40:01;;;;;;;12.07;2.97;;;;;;;;;;5062325;28;20040;-80
2023/03/03 13:42:32;;;;;;;17.33;3.33;;;;;;;;;;5061296;28;20111;-80
2023/03/03 13:45:01;;;;;;;15.07;3.40;;;;;;;;;;5056808;28;20049;-80
2023/03/03 13:47:30;;;;;;;18.30;3.63;;;;;;;;;;5063131;28;20045;-80
2023/03/03 13:50:01;;;;;;;13.98;3.65;;;;;;;;;;5064165;28;20045;-80
2023/03/03 13:52:28;;;;;;;14.80;3.75;;;;;;;;;;5067850;28;20079;-80
2023/03/03 13:54:56;;;;;;;9.50;3.10;;;;;;;;;;5073790;28;20045;-80
2023/03/03 13:57:37;;;;;;;11.80;2.88;;;;;;;;;;5087567;28;20057;-80
2023/03/03 14:00:19;;;;;;;17.02;3.70;;;;;;;;;;5089191;28;20051;-80
2023/03/03 14:02:54;;;;;;;12.05;3.40;;;;;;;;;;5045250;28;20045;-80
2023/03/03 14:05:40;;;;;;;13.82;3.53;;;;;;;;;;5052555;28;20056;-80
2023/03/03 14:08:10;;;;;;;16.63;3.72;;;;;;;;;;5063260;28;20473;-79
2023/03/03 14:10:39;;;;;;;15.70;3.20;;;;;;;;;;5067121;28;20045;-80
2023/03/03 14:13:10;;;;;;;9.90;2.92;;;;;;;;;;5065100;28;20525;-80
2023/03/03 14:15:55;;;;;;;11.60;3.00;;;;;;;;;;5059293;28;20044;-80
2023/03/03 14:18:27;;;;;;;14.75;3.30;;;;;;;;;;5060512;28;20084;-80
2023/03/03 14:20:54;;;;;;;9.07;2.92;;;;;;;;;;5060392;28;20093;-80
2023/03/03 14:23:39;;;;;;;17.38;3.53;;;;;;;;;;5059464;28;20041;-80
2023/03/03 14:26:09;;;;;;;10.80;2.97;;;;;;;;;;5056727;28;20052;-80
2023/03/03 14:28:38;;;;;;;13.73;3.13;;;;;;;;;;5050728;28;20457;-80
2023/03/03 14:31:15;;;;;;;8.57;2.83;;;;;;;;;;5059189;28;20033;-80
2023/03/03 14:33:43;;;;;;;13.55;3.47;;;;;;;;;;5056513;28;20372;-80
2023/03/03 14:36:15;;;;;;;12.43;3.00;;;;;;;;;;5052098;28;20488;-80
2023/03/03 14:38:43;;;;;;;11.13;3.05;;;;;;;;;;5057512;28;20147;-80
2023/03/03 14:41:09;;;;;;;11.93;3.13;;;;;;;;;;5059153;28;20048;-80
2023/03/03 14:43:39;;;;;;;13.60;4.05;;;;;;;;;;5057788;28;20186;-80
2023/03/03 14:46:24;;;;;;;11.35;3.67;;;;;;;;;;5059192;28;20098;-80
2023/03/03 14:48:51;;;;;;;16.27;3.92;;;;;;;;;;5057497;28;20415;-80
2023/03/03 14:51:32;;;;;;;12.82;3.65;;;;;;;;;;5063689;28;20579;-80
2023/03/03 14:53:58;;;;;;;20.80;3.78;;;;;;;;;;5055956;28;20051;-80
2023/03/03 14:56:29;;;;;;;11.25;3.40;;;;;;;;;;5058456;28;20048;-80
2023/03/03 14:59:14;;;;;;;14.95;3.15;;;;;;;;;;5058409;28;20047;-80